sensor_id;sensor_type;location;lat;lon;timestamp;P1;P2;P0
55043;PMS5003;54902;50.420;18.854;2023-04-15T00:00:00;14;14;12
55043;PMS5003;54902;50.420;18.854;2023-04-15T00:00:31;14;14;12
55043;PMS5003;54902;50.420;18.854;2023-04-15T00:01:03;14;14;12
55043;PMS5003;54902;50.420;18.854;2023-04-15T00:01:35;14;14;12
55043;PMS5003;54902;50.420;18.854;2023-04-15T00:02:47;14;14;12
55043;PMS5003;54902;50.420;18.854;2023-04-15T00:03:18;10;10;8
55043;PMS5003;54902;50.420;18.854;2023-04-15T00:03:50;10;10;8
55043;PMS5003;54902;50.420;18.854;2023-04-15T00:04:21;10;10;8
55043;PMS5003;54902;50.420;18.854;2023-04-15T00:04:52;10;10;8
55043;PMS5003;54902;50.420;18.854;2023-04-15T00:05:23;10;10;8
55043;PMS5003;54902;50.420;18.854;2023-04-15T00:05:54;10;10;8
55043;PMS5003;54902;50.420;18.854;2023-04-15T00:06:25;10;10;8
55043;PMS5003;54902;50.420;18.854;2023-04-15T00:06:56;14;14;9
55043;PMS5003;54902;50.420;18.854;2023-04-15T00:07:28;14;14;9
55043;PMS5003;54902;50.420;18.854;2023-04-15T00:07:59;14;14;9
55043;PMS5003;54902;50.420;18.854;2023-04-15T00:08:30;10;10;8
55043;PMS5003;54902;50.420;18.854;2023-04-15T00:09:02;10;10;8
55043;PMS5003;54902;50.420;18.854;2023-04-15T00:09:33;10;10;8
55043;PMS5003;54902;50.420;18.854;2023-04-15T00:10:04;10;10;8
55043;PMS5003;54902;50.420;18.854;2023-04-15T00:10:35;10;10;8
55043;PMS5003;54902;50.420;18.854;2023-04-15T00:11:06;10;10;8
55043;PMS5003;54902;50.420;18.854;2023-04-15T00:11:37;10;10;8
55043;PMS5003;54902;50.420;18.854;2023-04-15T00:12:08;14;14;9
55043;PMS5003;54902;50.420;18.854;2023-04-15T00:12:40;14;14;9
55043;PMS5003;54902;50.420;18.854;2023-04-15T00:13:11;14;14;9
55043;PMS5003;54902;50.420;18.854;2023-04-15T00:13:42;14;14;9
55043;PMS5003;54902;50.420;18.854;2023-04-15T00:14:14;14;14;9
55043;PMS5003;54902;50.420;18.854;2023-04-15T00:14:45;14;14;9
55043;PMS5003;54902;50.420;18.854;2023-04-15T00:15:17;14;14;9
55043;PMS5003;54902;50.420;18.854;2023-04-15T00:15:48;14;14;9
55043;PMS5003;54902;50.420;18.854;2023-04-15T00:16:19;14;14;9
55043;PMS5003;54902;50.420;18.854;2023-04-15T00:16:51;14;14;9
55043;PMS5003;54902;50.420;18.854;2023-04-15T00:17:26;15;15;10
55043;PMS5003;54902;50.420;18.854;2023-04-15T00:17:57;11;11;7
55043;PMS5003;54902;50.420;18.854;2023-04-15T00:18:28;11;11;7
55043;PMS5003;54902;50.420;18.854;2023-04-15T00:19:00;11;11;7
55043;PMS5003;54902;50.420;18.854;2023-04-15T00:19:31;11;11;7
55043;PMS5003;54902;50.420;18.854;2023-04-15T00:20:03;11;11;7
55043;PMS5003;54902;50.420;18.854;2023-04-15T00:20:38;11;11;7
55043;PMS5003;54902;50.420;18.854;2023-04-15T00:21:09;11;11;7
55043;PMS5003;54902;50.420;18.854;2023-04-15T00:21:40;11;11;7
55043;PMS5003;54902;50.420;18.854;2023-04-15T00:22:12;11;11;7
55043;PMS5003;54902;50.420;18.854;2023-04-15T00:22:43;20;20;13
55043;PMS5003;54902;50.420;18.854;2023-04-15T00:23:14;20;20;13
55043;PMS5003;54902;50.420;18.854;2023-04-15T00:23:44;20;20;13
55043;PMS5003;54902;50.420;18.854;2023-04-15T00:24:22;20;20;13
55043;PMS5003;54902;50.420;18.854;2023-04-15T00:24:53;20;20;13
55043;PMS5003;54902;50.420;18.854;2023-04-15T00:25:24;20;20;13
55043;PMS5003;54902;50.420;18.854;2023-04-15T00:25:55;15;15;10
55043;PMS5003;54902;50.420;18.854;2023-04-15T00:26:26;15;15;10
55043;PMS5003;54902;50.420;18.854;2023-04-15T00:26:57;15;15;10
55043;PMS5003;54902;50.420;18.854;2023-04-15T00:27:29;15;15;10
55043;PMS5003;54902;50.420;18.854;2023-04-15T00:28:00;11;11;8
55043;PMS5003;54902;50.420;18.854;2023-04-15T00:28:32;11;11;8
55043;PMS5003;54902;50.420;18.854;2023-04-15T00:29:03;11;11;8
55043;PMS5003;54902;50.420;18.854;2023-04-15T00:29:34;11;11;8
55043;PMS5003;54902;50.420;18.854;2023-04-15T00:30:05;11;11;8
55043;PMS5003;54902;50.420;18.854;2023-04-15T00:30:36;11;11;8
55043;PMS5003;54902;50.420;18.854;2023-04-15T00:31:08;11;11;8
55043;PMS5003;54902;50.420;18.854;2023-04-15T00:31:40;11;11;8
55043;PMS5003;54902;50.420;18.854;2023-04-15T00:32:11;13;13;9
55043;PMS5003;54902;50.420;18.854;2023-04-15T00:32:42;13;13;9
55043;PMS5003;54902;50.420;18.854;2023-04-15T00:33:13;13;13;11
55043;PMS5003;54902;50.420;18.854;2023-04-15T00:33:46;13;13;11
55043;PMS5003;54902;50.420;18.854;2023-04-15T00:34:18;13;13;11
55043;PMS5003;54902;50.420;18.854;2023-04-15T00:34:49;13;13;11
55043;PMS5003;54902;50.420;18.854;2023-04-15T00:35:20;13;13;11
55043;PMS5003;54902;50.420;18.854;2023-04-15T00:35:53;13;13;11
55043;PMS5003;54902;50.420;18.854;2023-04-15T00:36:24;14;14;12
55043;PMS5003;54902;50.420;18.854;2023-04-15T00:36:55;14;14;12
55043;PMS5003;54902;50.420;18.854;2023-04-15T00:37:26;14;14;12
55043;PMS5003;54902;50.420;18.854;2023-04-15T00:37:57;14;14;12
55043;PMS5003;54902;50.420;18.854;2023-04-15T00:38:29;13;13;10
55043;PMS5003;54902;50.420;18.854;2023-04-15T00:39:00;13;13;10
55043;PMS5003;54902;50.420;18.854;2023-04-15T00:39:32;13;13;10
55043;PMS5003;54902;50.420;18.854;2023-04-15T00:40:03;13;13;10
55043;PMS5003;54902;50.420;18.854;2023-04-15T00:40:37;13;13;10
55043;PMS5003;54902;50.420;18.854;2023-04-15T00:41:08;13;13;10
55043;PMS5003;54902;50.420;18.854;2023-04-15T00:41:40;13;13;10
55043;PMS5003;54902;50.420;18.854;2023-04-15T00:42:12;13;13;10
55043;PMS5003;54902;50.420;18.854;2023-04-15T00:42:43;13;13;10
55043;PMS5003;54902;50.420;18.854;2023-04-15T00:43:14;13;13;10
55043;PMS5003;54902;50.420;18.854;2023-04-15T00:43:46;16;16;12
55043;PMS5003;54902;50.420;18.854;2023-04-15T00:44:17;16;16;12
55043;PMS5003;54902;50.420;18.854;2023-04-15T00:44:49;16;16;12
55043;PMS5003;54902;50.420;18.854;2023-04-15T00:45:20;16;16;12
55043;PMS5003;54902;50.420;18.854;2023-04-15T00:45:51;12;12;8
55043;PMS5003;54902;50.420;18.854;2023-04-15T00:46:25;12;12;8
55043;PMS5003;54902;50.420;18.854;2023-04-15T00:46:59;12;12;8
55043;PMS5003;54902;50.420;18.854;2023-04-15T00:47:32;12;12;8
55043;PMS5003;54902;50.420;18.854;2023-04-15T00:48:06;12;12;8
55043;PMS5003;54902;50.420;18.854;2023-04-15T00:48:39;12;12;8
55043;PMS5003;54902;50.420;18.854;2023-04-15T00:49:11;19;18;13
55043;PMS5003;54902;50.420;18.854;2023-04-15T00:49:42;19;18;13
55043;PMS5003;54902;50.420;18.854;2023-04-15T00:50:13;16;15;11
55043;PMS5003;54902;50.420;18.854;2023-04-15T00:50:44;16;15;11
55043;PMS5003;54902;50.420;18.854;2023-04-15T00:51:15;16;15;11
55043;PMS5003;54902;50.420;18.854;2023-04-15T00:51:47;16;15;11
55043;PMS5003;54902;50.420;18.854;2023-04-15T00:52:18;16;15;11
55043;PMS5003;54902;50.420;18.854;2023-04-15T00:52:49;16;15;11
55043;PMS5003;54902;50.420;18.854;2023-04-15T00:53:20;16;15;11
55043;PMS5003;54902;50.420;18.854;2023-04-15T00:53:51;16;15;11
55043;PMS5003;54902;50.420;18.854;2023-04-15T00:54:22;27;26;17
55043;PMS5003;54902;50.420;18.854;2023-04-15T00:54:53;27;26;17
55043;PMS5003;54902;50.420;18.854;2023-04-15T00:55:24;27;26;17
55043;PMS5003;54902;50.420;18.854;2023-04-15T00:55:55;27;26;17
55043;PMS5003;54902;50.420;18.854;2023-04-15T00:56:26;27;26;17
55043;PMS5003;54902;50.420;18.854;2023-04-15T00:56:59;27;26;17
55043;PMS5003;54902;50.420;18.854;2023-04-15T00:57:30;27;26;17
55043;PMS5003;54902;50.420;18.854;2023-04-15T00:58:02;27;26;17
55043;PMS5003;54902;50.420;18.854;2023-04-15T00:58:33;27;26;17
55043;PMS5003;54902;50.420;18.854;2023-04-15T00:59:04;27;26;17
55043;PMS5003;54902;50.420;18.854;2023-04-15T00:59:37;28;27;18
55043;PMS5003;54902;50.420;18.854;2023-04-15T01:00:08;28;27;18
55043;PMS5003;54902;50.420;18.854;2023-04-15T01:00:41;28;27;18
55043;PMS5003;54902;50.420;18.854;2023-04-15T01:01:12;28;27;18
55043;PMS5003;54902;50.420;18.854;2023-04-15T01:01:44;28;27;18
55043;PMS5003;54902;50.420;18.854;2023-04-15T01:02:16;28;27;18
55043;PMS5003;54902;50.420;18.854;2023-04-15T01:02:49;28;27;18
55043;PMS5003;54902;50.420;18.854;2023-04-15T01:03:20;28;27;18
55043;PMS5003;54902;50.420;18.854;2023-04-15T01:03:51;28;27;18
55043;PMS5003;54902;50.420;18.854;2023-04-15T01:04:23;28;27;18
55043;PMS5003;54902;50.420;18.854;2023-04-15T01:04:55;28;27;18
55043;PMS5003;54902;50.420;18.854;2023-04-15T01:05:26;28;27;18
55043;PMS5003;54902;50.420;18.854;2023-04-15T01:05:57;28;27;18
55043;PMS5003;54902;50.420;18.854;2023-04-15T01:06:30;28;27;18
55043;PMS5003;54902;50.420;18.854;2023-04-15T01:07:02;28;27;18
55043;PMS5003;54902;50.420;18.854;2023-04-15T01:07:33;28;27;18
55043;PMS5003;54902;50.420;18.854;2023-04-15T01:08:04;28;27;18
55043;PMS5003;54902;50.420;18.854;2023-04-15T01:08:35;28;27;18
55043;PMS5003;54902;50.420;18.854;2023-04-15T01:09:06;28;27;18
55043;PMS5003;54902;50.420;18.854;2023-04-15T01:09:37;28;27;18
55043;PMS5003;54902;50.420;18.854;2023-04-15T01:10:08;28;27;18
55043;PMS5003;54902;50.420;18.854;2023-04-15T01:10:40;28;27;18
55043;PMS5003;54902;50.420;18.854;2023-04-15T01:11:12;28;27;18
55043;PMS5003;54902;50.420;18.854;2023-04-15T01:11:43;28;27;18
55043;PMS5003;54902;50.420;18.854;2023-04-15T01:12:14;28;27;18
55043;PMS5003;54902;50.420;18.854;2023-04-15T01:12:46;28;27;18
55043;PMS5003;54902;50.420;18.854;2023-04-15T01:13:17;28;27;18
55043;PMS5003;54902;50.420;18.854;2023-04-15T01:13:51;28;27;18
55043;PMS5003;54902;50.420;18.854;2023-04-15T01:14:22;28;27;18
55043;PMS5003;54902;50.420;18.854;2023-04-15T01:14:54;28;27;18
55043;PMS5003;54902;50.420;18.854;2023-04-15T01:15:26;28;27;18
55043;PMS5003;54902;50.420;18.854;2023-04-15T01:15:57;28;27;18
55043;PMS5003;54902;50.420;18.854;2023-04-15T01:16:28;11;10;7
55043;PMS5003;54902;50.420;18.854;2023-04-15T01:16:59;11;10;7
55043;PMS5003;54902;50.420;18.854;2023-04-15T01:17:30;11;10;7
55043;PMS5003;54902;50.420;18.854;2023-04-15T01:18:01;11;10;7
55043;PMS5003;54902;50.420;18.854;2023-04-15T01:18:32;11;10;7
55043;PMS5003;54902;50.420;18.854;2023-04-15T01:19:07;11;10;7
55043;PMS5003;54902;50.420;18.854;2023-04-15T01:19:40;11;10;7
55043;PMS5003;54902;50.420;18.854;2023-04-15T01:20:11;11;10;7
55043;PMS5003;54902;50.420;18.854;2023-04-15T01:20:42;14;14;8
55043;PMS5003;54902;50.420;18.854;2023-04-15T01:21:14;14;14;8
55043;PMS5003;54902;50.420;18.854;2023-04-15T01:21:44;14;14;8
55043;PMS5003;54902;50.420;18.854;2023-04-15T01:22:16;14;14;8
55043;PMS5003;54902;50.420;18.854;2023-04-15T01:22:48;14;14;8
55043;PMS5003;54902;50.420;18.854;2023-04-15T01:23:20;14;14;8
55043;PMS5003;54902;50.420;18.854;2023-04-15T01:23:53;14;14;8
55043;PMS5003;54902;50.420;18.854;2023-04-15T01:24:27;14;14;8
55043;PMS5003;54902;50.420;18.854;2023-04-15T01:25:04;14;14;8
55043;PMS5003;54902;50.420;18.854;2023-04-15T01:25:39;14;14;8
55043;PMS5003;54902;50.420;18.854;2023-04-15T01:26:12;15;15;9
55043;PMS5003;54902;50.420;18.854;2023-04-15T01:26:43;15;15;9
55043;PMS5003;54902;50.420;18.854;2023-04-15T01:27:15;15;15;9
55043;PMS5003;54902;50.420;18.854;2023-04-15T01:27:46;15;15;9
55043;PMS5003;54902;50.420;18.854;2023-04-15T01:28:18;15;15;9
55043;PMS5003;54902;50.420;18.854;2023-04-15T01:28:49;15;15;9
55043;PMS5003;54902;50.420;18.854;2023-04-15T01:29:21;15;15;9
55043;PMS5003;54902;50.420;18.854;2023-04-15T01:29:52;15;15;9
55043;PMS5003;54902;50.420;18.854;2023-04-15T01:30:23;15;15;9
55043;PMS5003;54902;50.420;18.854;2023-04-15T01:31:37;15;15;9
55043;PMS5003;54902;50.420;18.854;2023-04-15T01:32:08;15;15;9
55043;PMS5003;54902;50.420;18.854;2023-04-15T01:32:39;15;15;9
55043;PMS5003;54902;50.420;18.854;2023-04-15T01:33:09;15;15;9
55043;PMS5003;54902;50.420;18.854;2023-04-15T01:33:41;15;15;9
55043;PMS5003;54902;50.420;18.854;2023-04-15T01:34:13;15;15;9
55043;PMS5003;54902;50.420;18.854;2023-04-15T01:34:44;15;15;9
55043;PMS5003;54902;50.420;18.854;2023-04-15T01:35:15;15;15;9
55043;PMS5003;54902;50.420;18.854;2023-04-15T01:35:46;14;14;8
55043;PMS5003;54902;50.420;18.854;2023-04-15T01:36:17;14;14;8
55043;PMS5003;54902;50.420;18.854;2023-04-15T01:36:49;12;11;7
55043;PMS5003;54902;50.420;18.854;2023-04-15T01:37:21;12;11;7
55043;PMS5003;54902;50.420;18.854;2023-04-15T01:37:52;12;11;7
55043;PMS5003;54902;50.420;18.854;2023-04-15T01:38:25;12;11;7
55043;PMS5003;54902;50.420;18.854;2023-04-15T01:38:57;12;11;7
55043;PMS5003;54902;50.420;18.854;2023-04-15T01:39:28;12;11;7
55043;PMS5003;54902;50.420;18.854;2023-04-15T01:40:00;12;11;7
55043;PMS5003;54902;50.420;18.854;2023-04-15T01:40:31;12;11;7
55043;PMS5003;54902;50.420;18.854;2023-04-15T01:41:02;12;11;7
55043;PMS5003;54902;50.420;18.854;2023-04-15T01:41:37;12;11;7
55043;PMS5003;54902;50.420;18.854;2023-04-15T01:42:11;16;15;10
55043;PMS5003;54902;50.420;18.854;2023-04-15T01:42:42;16;15;10
55043;PMS5003;54902;50.420;18.854;2023-04-15T01:43:13;16;15;10
55043;PMS5003;54902;50.420;18.854;2023-04-15T01:43:44;16;15;10
55043;PMS5003;54902;50.420;18.854;2023-04-15T01:44:15;13;12;9
55043;PMS5003;54902;50.420;18.854;2023-04-15T01:44:46;13;12;9
55043;PMS5003;54902;50.420;18.854;2023-04-15T01:45:17;13;12;9
55043;PMS5003;54902;50.420;18.854;2023-04-15T01:45:49;13;12;9
55043;PMS5003;54902;50.420;18.854;2023-04-15T01:46:21;13;12;9
55043;PMS5003;54902;50.420;18.854;2023-04-15T01:46:52;13;12;9
55043;PMS5003;54902;50.420;18.854;2023-04-15T01:47:23;20;20;13
55043;PMS5003;54902;50.420;18.854;2023-04-15T01:47:54;20;20;13
55043;PMS5003;54902;50.420;18.854;2023-04-15T01:48:26;20;20;13
55043;PMS5003;54902;50.420;18.854;2023-04-15T01:48:57;20;20;13
55043;PMS5003;54902;50.420;18.854;2023-04-15T01:49:28;20;20;13
55043;PMS5003;54902;50.420;18.854;2023-04-15T01:49:59;20;20;13
55043;PMS5003;54902;50.420;18.854;2023-04-15T01:50:30;20;20;13
55043;PMS5003;54902;50.420;18.854;2023-04-15T01:51:01;20;20;13
55043;PMS5003;54902;50.420;18.854;2023-04-15T01:51:33;20;20;13
55043;PMS5003;54902;50.420;18.854;2023-04-15T01:52:04;20;20;13
55043;PMS5003;54902;50.420;18.854;2023-04-15T01:52:34;22;22;15
55043;PMS5003;54902;50.420;18.854;2023-04-15T01:53:05;22;22;15
55043;PMS5003;54902;50.420;18.854;2023-04-15T01:53:36;22;22;15
55043;PMS5003;54902;50.420;18.854;2023-04-15T01:54:07;22;22;15
55043;PMS5003;54902;50.420;18.854;2023-04-15T01:54:38;22;22;15
55043;PMS5003;54902;50.420;18.854;2023-04-15T01:55:10;22;22;15
55043;PMS5003;54902;50.420;18.854;2023-04-15T01:55:42;22;22;15
55043;PMS5003;54902;50.420;18.854;2023-04-15T01:56:13;22;22;15
55043;PMS5003;54902;50.420;18.854;2023-04-15T01:56:45;22;22;15
55043;PMS5003;54902;50.420;18.854;2023-04-15T01:57:16;22;22;15
55043;PMS5003;54902;50.420;18.854;2023-04-15T01:57:47;22;22;15
55043;PMS5003;54902;50.420;18.854;2023-04-15T01:58:18;22;22;15
55043;PMS5003;54902;50.420;18.854;2023-04-15T01:58:49;22;22;15
55043;PMS5003;54902;50.420;18.854;2023-04-15T01:59:21;22;22;15
55043;PMS5003;54902;50.420;18.854;2023-04-15T01:59:52;22;22;15
55043;PMS5003;54902;50.420;18.854;2023-04-15T02:00:23;22;22;15
55043;PMS5003;54902;50.420;18.854;2023-04-15T02:00:54;22;22;15
55043;PMS5003;54902;50.420;18.854;2023-04-15T02:01:25;22;22;15
55043;PMS5003;54902;50.420;18.854;2023-04-15T02:01:56;22;22;15
55043;PMS5003;54902;50.420;18.854;2023-04-15T02:02:27;22;22;15
55043;PMS5003;54902;50.420;18.854;2023-04-15T02:02:58;22;22;15
55043;PMS5003;54902;50.420;18.854;2023-04-15T02:03:29;13;13;9
55043;PMS5003;54902;50.420;18.854;2023-04-15T02:04:00;13;13;9
55043;PMS5003;54902;50.420;18.854;2023-04-15T02:04:31;13;13;9
55043;PMS5003;54902;50.420;18.854;2023-04-15T02:05:03;13;13;9
55043;PMS5003;54902;50.420;18.854;2023-04-15T02:05:35;13;13;9
55043;PMS5003;54902;50.420;18.854;2023-04-15T02:06:06;13;13;9
55043;PMS5003;54902;50.420;18.854;2023-04-15T02:06:37;13;13;9
55043;PMS5003;54902;50.420;18.854;2023-04-15T02:07:08;13;13;9
55043;PMS5003;54902;50.420;18.854;2023-04-15T02:07:39;13;13;9
55043;PMS5003;54902;50.420;18.854;2023-04-15T02:08:10;19;19;13
55043;PMS5003;54902;50.420;18.854;2023-04-15T02:08:42;19;19;13
55043;PMS5003;54902;50.420;18.854;2023-04-15T02:09:13;19;19;13
55043;PMS5003;54902;50.420;18.854;2023-04-15T02:09:44;19;19;13
55043;PMS5003;54902;50.420;18.854;2023-04-15T02:10:15;19;19;13
55043;PMS5003;54902;50.420;18.854;2023-04-15T02:10:46;19;19;13
55043;PMS5003;54902;50.420;18.854;2023-04-15T02:11:17;19;19;13
55043;PMS5003;54902;50.420;18.854;2023-04-15T02:11:49;15;15;10
55043;PMS5003;54902;50.420;18.854;2023-04-15T02:12:23;15;15;10
55043;PMS5003;54902;50.420;18.854;2023-04-15T02:12:55;15;15;10
55043;PMS5003;54902;50.420;18.854;2023-04-15T02:13:26;14;14;10
55043;PMS5003;54902;50.420;18.854;2023-04-15T02:13:57;14;14;10
55043;PMS5003;54902;50.420;18.854;2023-04-15T02:14:28;14;14;10
55043;PMS5003;54902;50.420;18.854;2023-04-15T02:14:59;14;14;10
55043;PMS5003;54902;50.420;18.854;2023-04-15T02:15:30;14;14;10
55043;PMS5003;54902;50.420;18.854;2023-04-15T02:16:02;11;11;7
55043;PMS5003;54902;50.420;18.854;2023-04-15T02:16:33;11;11;7
55043;PMS5003;54902;50.420;18.854;2023-04-15T02:17:04;11;11;7
55043;PMS5003;54902;50.420;18.854;2023-04-15T02:17:38;11;11;7
55043;PMS5003;54902;50.420;18.854;2023-04-15T02:18:09;11;11;7
55043;PMS5003;54902;50.420;18.854;2023-04-15T02:18:40;14;9;2
55043;PMS5003;54902;50.420;18.854;2023-04-15T02:19:11;14;9;2
55043;PMS5003;54902;50.420;18.854;2023-04-15T02:19:43;14;9;2
55043;PMS5003;54902;50.420;18.854;2023-04-15T02:20:13;14;12;6
55043;PMS5003;54902;50.420;18.854;2023-04-15T02:20:44;14;12;6
55043;PMS5003;54902;50.420;18.854;2023-04-15T02:21:17;14;12;6
55043;PMS5003;54902;50.420;18.854;2023-04-15T02:21:48;14;12;6
55043;PMS5003;54902;50.420;18.854;2023-04-15T02:22:19;14;12;6
55043;PMS5003;54902;50.420;18.854;2023-04-15T02:22:50;14;12;6
55043;PMS5003;54902;50.420;18.854;2023-04-15T02:23:21;14;12;6
55043;PMS5003;54902;50.420;18.854;2023-04-15T02:23:52;19;19;12
55043;PMS5003;54902;50.420;18.854;2023-04-15T02:24:23;19;19;12
55043;PMS5003;54902;50.420;18.854;2023-04-15T02:24:54;19;19;12
55043;PMS5003;54902;50.420;18.854;2023-04-15T02:25:25;19;19;12
55043;PMS5003;54902;50.420;18.854;2023-04-15T02:25:56;19;19;12
55043;PMS5003;54902;50.420;18.854;2023-04-15T02:26:27;19;19;12
55043;PMS5003;54902;50.420;18.854;2023-04-15T02:27:02;19;19;12
55043;PMS5003;54902;50.420;18.854;2023-04-15T02:27:34;19;19;12
55043;PMS5003;54902;50.420;18.854;2023-04-15T02:28:05;19;19;12
55043;PMS5003;54902;50.420;18.854;2023-04-15T02:28:36;19;19;12
55043;PMS5003;54902;50.420;18.854;2023-04-15T02:29:07;21;21;13
55043;PMS5003;54902;50.420;18.854;2023-04-15T02:29:38;21;21;13
55043;PMS5003;54902;50.420;18.854;2023-04-15T02:30:09;21;21;13
55043;PMS5003;54902;50.420;18.854;2023-04-15T02:30:40;21;21;13
55043;PMS5003;54902;50.420;18.854;2023-04-15T02:31:11;21;21;13
55043;PMS5003;54902;50.420;18.854;2023-04-15T02:31:42;21;21;13
55043;PMS5003;54902;50.420;18.854;2023-04-15T02:32:14;21;21;13
55043;PMS5003;54902;50.420;18.854;2023-04-15T02:32:45;21;21;13
55043;PMS5003;54902;50.420;18.854;2023-04-15T02:33:17;21;21;13
55043;PMS5003;54902;50.420;18.854;2023-04-15T02:33:48;21;21;13
55043;PMS5003;54902;50.420;18.854;2023-04-15T02:34:19;21;21;13
55043;PMS5003;54902;50.420;18.854;2023-04-15T02:34:50;21;21;13
55043;PMS5003;54902;50.420;18.854;2023-04-15T02:35:22;21;21;13
55043;PMS5003;54902;50.420;18.854;2023-04-15T02:35:55;21;21;13
55043;PMS5003;54902;50.420;18.854;2023-04-15T02:36:26;21;21;13
55043;PMS5003;54902;50.420;18.854;2023-04-15T02:37:00;21;21;13
55043;PMS5003;54902;50.420;18.854;2023-04-15T02:37:36;21;21;13
55043;PMS5003;54902;50.420;18.854;2023-04-15T02:38:14;21;21;13
55043;PMS5003;54902;50.420;18.854;2023-04-15T02:38:47;21;21;13
55043;PMS5003;54902;50.420;18.854;2023-04-15T02:39:18;21;21;13
55043;PMS5003;54902;50.420;18.854;2023-04-15T02:39:49;21;21;13
55043;PMS5003;54902;50.420;18.854;2023-04-15T02:40:20;3;3;2
55043;PMS5003;54902;50.420;18.854;2023-04-15T02:40:52;3;3;2
55043;PMS5003;54902;50.420;18.854;2023-04-15T02:41:23;3;3;2
55043;PMS5003;54902;50.420;18.854;2023-04-15T02:41:57;3;3;2
55043;PMS5003;54902;50.420;18.854;2023-04-15T02:42:30;3;3;2
55043;PMS5003;54902;50.420;18.854;2023-04-15T02:43:01;3;3;2
55043;PMS5003;54902;50.420;18.854;2023-04-15T02:43:36;3;3;2
55043;PMS5003;54902;50.420;18.854;2023-04-15T02:44:09;3;3;2
55043;PMS5003;54902;50.420;18.854;2023-04-15T02:44:42;3;3;2
55043;PMS5003;54902;50.420;18.854;2023-04-15T02:45:13;2;2;2
55043;PMS5003;54902;50.420;18.854;2023-04-15T02:45:45;2;2;2
55043;PMS5003;54902;50.420;18.854;2023-04-15T02:46:16;2;2;2
55043;PMS5003;54902;50.420;18.854;2023-04-15T02:46:47;1;1;1
55043;PMS5003;54902;50.420;18.854;2023-04-15T02:47:23;1;1;1
55043;PMS5003;54902;50.420;18.854;2023-04-15T02:47:54;1;1;1
55043;PMS5003;54902;50.420;18.854;2023-04-15T02:48:25;1;1;1
55043;PMS5003;54902;50.420;18.854;2023-04-15T02:48:56;1;1;1
55043;PMS5003;54902;50.420;18.854;2023-04-15T02:49:29;1;1;1
55043;PMS5003;54902;50.420;18.854;2023-04-15T02:50:01;1;1;1
55043;PMS5003;54902;50.420;18.854;2023-04-15T02:50:33;2;2;2
55043;PMS5003;54902;50.420;18.854;2023-04-15T02:51:49;2;2;2
55043;PMS5003;54902;50.420;18.854;2023-04-15T02:52:20;2;2;2
55043;PMS5003;54902;50.420;18.854;2023-04-15T02:52:51;2;2;2
55043;PMS5003;54902;50.420;18.854;2023-04-15T02:53:22;2;2;2
55043;PMS5003;54902;50.420;18.854;2023-04-15T02:53:53;2;2;2
55043;PMS5003;54902;50.420;18.854;2023-04-15T02:54:24;2;2;2
55043;PMS5003;54902;50.420;18.854;2023-04-15T02:54:58;2;2;2
55043;PMS5003;54902;50.420;18.854;2023-04-15T02:55:33;2;2;2
55043;PMS5003;54902;50.420;18.854;2023-04-15T02:56:04;2;2;2
55043;PMS5003;54902;50.420;18.854;2023-04-15T02:56:36;2;2;2
55043;PMS5003;54902;50.420;18.854;2023-04-15T02:57:07;2;2;2
55043;PMS5003;54902;50.420;18.854;2023-04-15T02:57:39;2;2;2
55043;PMS5003;54902;50.420;18.854;2023-04-15T02:58:11;2;2;2
55043;PMS5003;54902;50.420;18.854;2023-04-15T02:58:42;2;2;2
55043;PMS5003;54902;50.420;18.854;2023-04-15T02:59:19;2;2;2
55043;PMS5003;54902;50.420;18.854;2023-04-15T02:59:50;2;2;2
55043;PMS5003;54902;50.420;18.854;2023-04-15T03:00:21;2;2;2
55043;PMS5003;54902;50.420;18.854;2023-04-15T03:00:54;2;2;2
55043;PMS5003;54902;50.420;18.854;2023-04-15T03:01:25;1;1;0
55043;PMS5003;54902;50.420;18.854;2023-04-15T03:01:56;1;1;0
55043;PMS5003;54902;50.420;18.854;2023-04-15T03:02:33;1;1;0
55043;PMS5003;54902;50.420;18.854;2023-04-15T03:03:05;1;1;0
55043;PMS5003;54902;50.420;18.854;2023-04-15T03:03:36;1;1;0
55043;PMS5003;54902;50.420;18.854;2023-04-15T03:04:07;1;1;0
55043;PMS5003;54902;50.420;18.854;2023-04-15T03:04:38;1;1;0
55043;PMS5003;54902;50.420;18.854;2023-04-15T03:05:10;1;1;0
55043;PMS5003;54902;50.420;18.854;2023-04-15T03:05:43;1;1;0
55043;PMS5003;54902;50.420;18.854;2023-04-15T03:06:14;1;1;0
55043;PMS5003;54902;50.420;18.854;2023-04-15T03:06:45;1;1;1
55043;PMS5003;54902;50.420;18.854;2023-04-15T03:07:17;1;1;1
55043;PMS5003;54902;50.420;18.854;2023-04-15T03:07:48;1;1;1
55043;PMS5003;54902;50.420;18.854;2023-04-15T03:08:19;1;1;1
55043;PMS5003;54902;50.420;18.854;2023-04-15T03:08:50;1;1;1
55043;PMS5003;54902;50.420;18.854;2023-04-15T03:09:21;1;1;1
55043;PMS5003;54902;50.420;18.854;2023-04-15T03:09:52;1;1;1
55043;PMS5003;54902;50.420;18.854;2023-04-15T03:10:23;1;1;1
55043;PMS5003;54902;50.420;18.854;2023-04-15T03:10:56;1;1;1
55043;PMS5003;54902;50.420;18.854;2023-04-15T03:11:31;1;1;1
55043;PMS5003;54902;50.420;18.854;2023-04-15T03:12:02;2;2;2
55043;PMS5003;54902;50.420;18.854;2023-04-15T03:12:33;2;2;2
55043;PMS5003;54902;50.420;18.854;2023-04-15T03:13:05;2;2;2
55043;PMS5003;54902;50.420;18.854;2023-04-15T03:13:35;2;2;2
55043;PMS5003;54902;50.420;18.854;2023-04-15T03:14:10;2;2;2
55043;PMS5003;54902;50.420;18.854;2023-04-15T03:14:41;2;2;2
55043;PMS5003;54902;50.420;18.854;2023-04-15T03:15:12;2;2;2
55043;PMS5003;54902;50.420;18.854;2023-04-15T03:15:46;2;2;2
55043;PMS5003;54902;50.420;18.854;2023-04-15T03:16:17;2;2;2
55043;PMS5003;54902;50.420;18.854;2023-04-15T03:16:48;2;2;2
55043;PMS5003;54902;50.420;18.854;2023-04-15T03:17:21;2;2;2
55043;PMS5003;54902;50.420;18.854;2023-04-15T03:17:52;2;2;2
55043;PMS5003;54902;50.420;18.854;2023-04-15T03:18:23;2;2;2
55043;PMS5003;54902;50.420;18.854;2023-04-15T03:18:54;2;2;2
55043;PMS5003;54902;50.420;18.854;2023-04-15T03:19:25;4;4;3
55043;PMS5003;54902;50.420;18.854;2023-04-15T03:19:56;4;4;3
55043;PMS5003;54902;50.420;18.854;2023-04-15T03:20:27;4;4;3
55043;PMS5003;54902;50.420;18.854;2023-04-15T03:20:58;4;4;3
55043;PMS5003;54902;50.420;18.854;2023-04-15T03:21:28;4;4;3
55043;PMS5003;54902;50.420;18.854;2023-04-15T03:22:00;4;4;3
55043;PMS5003;54902;50.420;18.854;2023-04-15T03:22:31;8;7;5
55043;PMS5003;54902;50.420;18.854;2023-04-15T03:23:02;8;7;5
55043;PMS5003;54902;50.420;18.854;2023-04-15T03:23:33;8;7;5
55043;PMS5003;54902;50.420;18.854;2023-04-15T03:24:05;8;7;5
55043;PMS5003;54902;50.420;18.854;2023-04-15T03:24:36;8;7;5
55043;PMS5003;54902;50.420;18.854;2023-04-15T03:25:07;8;7;5